createdAt,value
2022-12-08T00:01:15.322Z,19.90
2022-12-08T00:03:42.588Z,47.10
2022-12-08T00:06:56.082Z,40.70
2022-12-08T00:12:14.632Z,45.90
2022-12-08T00:14:46.932Z,35.40
2022-12-08T00:17:16.025Z,19.20
2022-12-08T00:19:43.415Z,44.60
2022-12-08T00:22:11.700Z,46.30
2022-12-08T00:24:39.754Z,47.70
2022-12-08T00:27:08.533Z,55.80
2022-12-08T00:29:35.262Z,58.40
2022-12-08T00:32:02.088Z,67.70
2022-12-08T00:34:30.285Z,65.10
2022-12-08T00:36:57.043Z,62.50
2022-12-08T00:39:24.122Z,59.30
2022-12-08T00:42:09.360Z,75.40
2022-12-08T00:44:36.070Z,63.30
2022-12-08T00:47:03.289Z,77.20
2022-12-08T00:49:29.935Z,78.70
2022-12-08T00:51:56.662Z,38.80
2022-12-08T00:54:23.882Z,46.50
2022-12-08T00:56:51.345Z,36.50
2022-12-08T00:59:18.489Z,26.30
2022-12-08T01:01:45.586Z,79.30
2022-12-08T01:04:15.493Z,143.20
2022-12-08T01:06:43.228Z,113.40
2022-12-08T01:09:12.119Z,152.50
2022-12-08T01:11:38.966Z,137.20
2022-12-08T01:14:05.748Z,163.70
2022-12-08T01:16:35.652Z,107.50
2022-12-08T01:19:03.330Z,84.40
2022-12-08T01:21:30.105Z,57.20
2022-12-08T01:23:59.599Z,84.80
2022-12-08T01:26:26.885Z,118.50
2022-12-08T01:28:53.922Z,126.50
2022-12-08T01:31:22.218Z,96.70
2022-12-08T01:33:49.826Z,131.90
2022-12-08T01:36:23.761Z,77.30
2022-12-08T01:38:51.549Z,31.50
2022-12-08T01:41:21.624Z,35.20
2022-12-08T01:44:08.117Z,27.80
2022-12-08T01:46:37.668Z,168.00
2022-12-08T01:49:25.597Z,104.50
2022-12-08T01:52:02.298Z,119.60
2022-12-08T01:54:33.606Z,91.20
2022-12-08T01:57:09.467Z,80.70
2022-12-08T01:59:41.425Z,81.70
2022-12-08T02:02:10.195Z,53.30
2022-12-08T02:04:37.378Z,74.60
2022-12-08T02:07:08.101Z,78.50
2022-12-08T02:09:37.045Z,67.60
2022-12-08T02:12:03.890Z,54.30
2022-12-08T02:14:30.996Z,62.60
2022-12-08T02:17:20.871Z,61.50
2022-12-08T02:20:04.300Z,37.50
2022-12-08T02:22:50.300Z,23.40
2022-12-08T02:25:27.000Z,59.80
2022-12-08T02:28:27.655Z,43.60
2022-12-08T02:31:11.611Z,15.40
2022-12-08T02:33:44.658Z,12.00
2022-12-08T02:36:26.314Z,71.30
2022-12-08T02:39:00.281Z,82.00
2022-12-08T02:41:47.730Z,61.90
2022-12-08T02:44:27.560Z,85.60
2022-12-08T02:47:00.105Z,62.80
2022-12-08T02:52:11.028Z,66.70
2022-12-08T02:54:50.282Z,91.20
2022-12-08T02:57:58.780Z,69.50
2022-12-08T03:00:28.849Z,92.90
2022-12-08T03:03:14.047Z,82.50
2022-12-08T03:05:59.133Z,92.10
2022-12-08T03:08:48.790Z,75.80
2022-12-08T03:11:30.011Z,29.30
2022-12-08T03:14:00.708Z,35.40
2022-12-08T03:16:29.570Z,32.90
2022-12-08T03:19:05.013Z,79.00
2022-12-08T03:21:34.175Z,78.00
2022-12-08T03:24:05.291Z,86.10
2022-12-08T03:26:51.228Z,74.30
2022-12-08T03:29:18.474Z,79.50
2022-12-08T03:31:52.318Z,55.30
2022-12-08T03:34:21.276Z,20.60
2022-12-08T03:36:48.001Z,68.60
2022-12-08T03:39:14.715Z,67.70
2022-12-08T03:41:41.609Z,62.70
2022-12-08T03:44:08.261Z,72.20
2022-12-08T03:46:34.925Z,71.00
2022-12-08T03:49:01.821Z,32.20
2022-12-08T03:51:28.709Z,58.80
2022-12-08T03:53:55.566Z,57.50
2022-12-08T03:56:27.995Z,48.90
2022-12-08T03:58:55.079Z,63.10
2022-12-08T04:01:22.203Z,35.40
2022-12-08T04:03:49.687Z,39.00
2022-12-08T04:06:17.675Z,26.00
2022-12-08T04:08:44.483Z,58.70
2022-12-08T04:11:11.700Z,46.00
2022-12-08T04:13:40.763Z,55.20
2022-12-08T04:16:08.509Z,42.30
2022-12-08T04:18:35.603Z,13.70
2022-12-08T04:21:02.378Z,49.20
2022-12-08T04:23:29.206Z,48.80
2022-12-08T04:25:55.895Z,76.20
2022-12-08T04:28:22.668Z,54.50
2022-12-08T04:30:50.199Z,44.80
2022-12-08T04:33:17.054Z,69.30
2022-12-08T04:35:43.768Z,32.80
2022-12-08T04:38:10.686Z,136.50
2022-12-08T04:40:38.373Z,59.10
2022-12-08T04:43:05.779Z,89.30
2022-12-08T04:45:33.064Z,60.60
2022-12-08T04:48:00.366Z,24.80
2022-12-08T04:50:27.545Z,43.80
2022-12-08T04:52:54.259Z,44.40
2022-12-08T04:55:21.085Z,17.10
2022-12-08T04:57:47.864Z,45.80
2022-12-08T05:00:15.046Z,25.30
2022-12-08T05:02:41.765Z,27.70
2022-12-08T05:05:09.056Z,53.60
2022-12-08T05:07:35.965Z,23.00
2022-12-08T05:10:03.371Z,17.50
2022-12-08T05:12:30.299Z,24.10
2022-12-08T05:14:57.003Z,46.70
2022-12-08T05:17:23.726Z,51.50
2022-12-08T05:19:50.447Z,24.60
2022-12-08T05:22:17.048Z,20.20
2022-12-08T05:24:47.453Z,66.40
2022-12-08T05:27:14.966Z,59.50
2022-12-08T05:29:41.823Z,56.90
2022-12-08T05:32:08.485Z,46.90
2022-12-08T05:34:35.207Z,15.80
2022-12-08T05:37:01.962Z,57.60
2022-12-08T05:39:28.593Z,90.90
2022-12-08T05:41:55.261Z,81.10
2022-12-08T05:44:22.043Z,118.00
2022-12-08T05:46:48.698Z,90.40
2022-12-08T05:49:15.335Z,100.80
2022-12-08T05:51:42.087Z,68.60
2022-12-08T05:54:09.019Z,72.80
2022-12-08T05:56:35.692Z,77.30
2022-12-08T05:59:06.225Z,115.30
2022-12-08T06:01:33.090Z,74.30
2022-12-08T06:04:01.742Z,45.40
2022-12-08T06:06:29.459Z,20.70
2022-12-08T06:08:56.086Z,20.40
2022-12-08T06:11:30.730Z,19.60
2022-12-08T06:13:57.856Z,20.90
2022-12-08T06:16:26.557Z,22.40
2022-12-08T06:18:53.634Z,66.70
2022-12-08T06:21:20.999Z,64.30
2022-12-08T06:23:54.358Z,64.30
2022-12-08T06:26:21.669Z,63.40
2022-12-08T06:28:49.376Z,28.90
2022-12-08T06:31:22.344Z,40.40
2022-12-08T06:33:49.943Z,45.40
2022-12-08T06:36:18.867Z,73.90
2022-12-08T06:38:45.783Z,67.50
2022-12-08T06:41:13.153Z,65.20
2022-12-08T06:43:41.117Z,102.70
2022-12-08T06:46:10.847Z,41.70
2022-12-08T06:48:37.900Z,36.70
2022-12-08T06:51:08.889Z,25.70
2022-12-08T06:53:36.075Z,50.90
2022-12-08T06:56:03.534Z,45.20
2022-12-08T06:58:30.249Z,28.70
2022-12-08T07:00:57.060Z,117.10
2022-12-08T07:03:23.965Z,143.40
2022-12-08T07:06:01.816Z,130.30
2022-12-08T07:08:30.632Z,107.20
2022-12-08T07:10:57.440Z,104.50
2022-12-08T07:13:24.307Z,134.00
2022-12-08T07:15:51.350Z,109.20
2022-12-08T07:18:18.156Z,119.50
2022-12-08T07:20:44.984Z,113.00
2022-12-08T07:23:11.652Z,95.80
2022-12-08T07:25:38.279Z,125.50
2022-12-08T07:28:09.917Z,115.10
2022-12-08T07:30:37.259Z,95.30
2022-12-08T07:33:07.843Z,88.10
2022-12-08T07:35:35.399Z,84.20
2022-12-08T07:38:02.328Z,87.40
2022-12-08T07:40:29.144Z,88.60
2022-12-08T07:42:55.805Z,101.40
2022-12-08T07:45:26.903Z,77.20
2022-12-08T07:47:56.668Z,102.50
2022-12-08T07:50:23.452Z,37.80
2022-12-08T07:52:50.194Z,41.00
2022-12-08T07:55:16.972Z,42.90
2022-12-08T07:57:43.645Z,68.40
2022-12-08T08:00:11.081Z,28.20
2022-12-08T08:02:41.662Z,78.80
2022-12-08T08:05:08.972Z,58.60
2022-12-08T08:07:36.623Z,65.60
2022-12-08T08:10:04.257Z,38.60
2022-12-08T08:12:32.528Z,71.60
2022-12-08T08:15:00.767Z,13.30
2022-12-08T08:17:28.888Z,56.10
2022-12-08T08:19:56.076Z,68.80
2022-12-08T08:22:24.460Z,40.60
2022-12-08T08:24:51.286Z,26.80
2022-12-08T08:27:18.152Z,14.60
2022-12-08T08:29:44.800Z,55.90
2022-12-08T08:32:11.675Z,50.10
2022-12-08T08:34:38.519Z,46.50
2022-12-08T08:37:05.872Z,58.70
2022-12-08T08:39:32.738Z,48.10
2022-12-08T08:41:59.634Z,22.90
2022-12-08T08:44:26.266Z,53.90
2022-12-08T08:46:53.147Z,14.80
2022-12-08T08:49:20.042Z,48.60
2022-12-08T08:51:46.871Z,39.20
2022-12-08T08:54:13.733Z,56.20
2022-12-08T08:56:40.497Z,54.80
2022-12-08T08:59:07.492Z,46.90
2022-12-08T09:01:34.349Z,60.90
2022-12-08T09:04:01.347Z,28.20
2022-12-08T09:06:28.340Z,68.00
2022-12-08T09:08:55.259Z,40.20
2022-12-08T09:11:22.814Z,42.30
2022-12-08T09:13:50.745Z,46.40
2022-12-08T09:16:18.439Z,63.00
2022-12-08T09:18:45.726Z,58.20
2022-12-08T09:21:19.549Z,49.80
2022-12-08T09:23:46.157Z,50.40
2022-12-08T09:26:14.807Z,47.30
2022-12-08T09:28:45.829Z,40.30
2022-12-08T09:31:14.016Z,34.90
2022-12-08T09:33:41.441Z,41.40
2022-12-08T09:36:09.029Z,18.40
2022-12-08T09:38:36.741Z,16.70
2022-12-08T09:41:13.614Z,25.50
2022-12-08T09:44:03.572Z,20.80
2022-12-08T09:46:32.969Z,38.40
2022-12-08T09:49:01.718Z,33.60
2022-12-08T09:51:36.499Z,33.20
2022-12-08T09:54:12.017Z,39.50
2022-12-08T09:56:39.351Z,29.70
2022-12-08T09:59:30.417Z,40.60
2022-12-08T10:01:57.214Z,30.80
2022-12-08T10:04:34.036Z,37.30
2022-12-08T10:07:23.691Z,44.80
2022-12-08T10:10:19.168Z,45.40
2022-12-08T10:13:23.439Z,49.70
2022-12-08T10:15:57.509Z,28.60
2022-12-08T10:18:30.728Z,49.40
2022-12-08T10:21:11.122Z,46.10
2022-12-08T10:23:41.120Z,33.40
2022-12-08T10:26:19.270Z,19.80
2022-12-08T10:28:45.989Z,49.60
2022-12-08T10:31:17.124Z,39.10
2022-12-08T10:33:45.182Z,41.00
2022-12-08T10:36:11.917Z,36.90
2022-12-08T10:38:40.170Z,44.20
2022-12-08T10:41:13.550Z,30.60
2022-12-08T10:43:48.643Z,34.90
2022-12-08T10:46:20.359Z,35.30
2022-12-08T10:48:55.893Z,36.40
2022-12-08T10:51:33.761Z,21.30
2022-12-08T10:54:00.872Z,37.70
2022-12-08T10:56:30.182Z,40.70
2022-12-08T10:59:26.453Z,42.70
2022-12-08T11:01:56.524Z,41.50
2022-12-08T11:04:35.907Z,31.10
2022-12-08T11:07:05.655Z,38.70
2022-12-08T11:09:47.654Z,43.30
2022-12-08T11:12:21.952Z,41.10
2022-12-08T11:15:00.737Z,20.40
2022-12-08T11:17:35.060Z,30.70
2022-12-08T11:20:06.034Z,42.40
2022-12-08T11:22:36.583Z,41.00
2022-12-08T11:25:03.443Z,27.90
2022-12-08T11:27:32.746Z,16.40
2022-12-08T11:30:01.347Z,29.10
2022-12-08T11:32:27.932Z,31.20
2022-12-08T11:34:54.452Z,40.30
2022-12-08T11:37:41.388Z,42.50
2022-12-08T11:40:33.649Z,25.30
2022-12-08T11:43:26.670Z,42.90
2022-12-08T11:46:10.792Z,25.20
2022-12-08T11:48:48.613Z,36.80
2022-12-08T11:51:24.011Z,35.60
2022-12-08T11:54:02.560Z,31.10
2022-12-08T11:56:33.501Z,37.50
2022-12-08T11:59:09.254Z,37.30
2022-12-08T12:01:42.216Z,34.70
2022-12-08T12:04:19.861Z,40.70
2022-12-08T12:06:59.176Z,30.90
2022-12-08T12:09:36.004Z,13.50
2022-12-08T12:12:40.065Z,22.10
2022-12-08T12:15:32.359Z,26.80
2022-12-08T12:18:01.397Z,29.20
2022-12-08T12:20:36.706Z,31.10
2022-12-08T12:23:16.002Z,35.70
2022-12-08T12:25:54.376Z,44.40
2022-12-08T12:28:24.703Z,18.30
2022-12-08T12:31:14.611Z,22.30
2022-12-08T12:33:45.298Z,24.40
2022-12-08T12:36:13.767Z,30.30
2022-12-08T12:39:05.654Z,40.40
2022-12-08T12:41:55.509Z,24.70
2022-12-08T12:44:44.876Z,46.10
2022-12-08T12:47:14.233Z,47.00
2022-12-08T12:49:43.125Z,35.50
2022-12-08T12:52:09.654Z,42.60
2022-12-08T12:54:42.338Z,43.90
2022-12-08T12:59:48.980Z,32.80
2022-12-08T13:02:25.992Z,40.60
2022-12-08T13:05:14.206Z,39.30
2022-12-08T13:08:01.347Z,16.00
2022-12-08T13:10:39.755Z,37.70
2022-12-08T13:13:09.040Z,43.50
2022-12-08T13:15:46.385Z,41.30
2022-12-08T13:18:36.012Z,47.30
2022-12-08T13:21:08.870Z,37.80
2022-12-08T13:23:44.609Z,36.60
2022-12-08T13:26:13.317Z,26.60
2022-12-08T13:28:58.581Z,47.00
2022-12-08T13:31:52.414Z,35.20
2022-12-08T13:34:47.174Z,36.50
2022-12-08T13:37:32.665Z,35.10
2022-12-08T13:40:15.917Z,43.20
2022-12-08T13:43:05.298Z,38.70
2022-12-08T13:46:18.227Z,39.50
2022-12-08T13:57:32.921Z,24.90
2022-12-08T14:00:14.009Z,116.90
2022-12-08T14:02:47.386Z,60.40
2022-12-08T14:05:18.586Z,52.30
2022-12-08T14:07:49.048Z,43.20
2022-12-08T14:10:21.301Z,57.90
2022-12-08T14:12:54.958Z,74.30
2022-12-08T14:15:22.574Z,42.20
2022-12-08T14:17:55.164Z,54.30
2022-12-08T14:22:56.902Z,43.20
2022-12-08T14:25:25.984Z,56.10
2022-12-08T14:28:02.124Z,47.30
2022-12-08T14:30:32.221Z,41.20
2022-12-08T14:33:01.523Z,37.10
2022-12-08T14:35:38.807Z,33.60
2022-12-08T14:38:13.506Z,32.90
2022-12-08T14:41:02.432Z,38.00
2022-12-08T14:43:31.272Z,33.00
2022-12-08T14:46:18.518Z,35.50
2022-12-08T14:48:45.983Z,21.70
2022-12-08T14:51:16.160Z,40.70
2022-12-08T14:53:45.809Z,20.80
2022-12-08T14:56:33.987Z,55.70
2022-12-08T14:59:19.471Z,35.70
2022-12-08T15:01:48.181Z,27.80
2022-12-08T15:04:19.487Z,37.20
2022-12-08T15:07:09.276Z,47.00
2022-12-08T15:09:40.334Z,31.00
2022-12-08T15:12:13.171Z,32.50
2022-12-08T15:14:41.463Z,25.80
2022-12-08T15:17:29.642Z,46.40
2022-12-08T15:19:58.168Z,22.10
2022-12-08T15:22:28.591Z,35.40
2022-12-08T15:24:55.930Z,30.60
2022-12-08T15:27:24.594Z,29.00
2022-12-08T15:29:51.277Z,21.10
2022-12-08T15:32:23.242Z,40.20
2022-12-08T15:34:50.164Z,22.90
2022-12-08T15:37:22.282Z,34.00
2022-12-08T15:39:49.586Z,43.80
2022-12-08T15:42:16.336Z,56.50
2022-12-08T15:44:43.514Z,52.80
2022-12-08T15:47:18.753Z,58.10
2022-12-08T15:49:46.948Z,54.80
2022-12-08T15:52:16.157Z,38.50
2022-12-08T15:54:42.942Z,48.20
2022-12-08T16:04:19.898Z,41.00
2022-12-08T16:09:32.837Z,27.70
2022-12-08T16:12:18.560Z,37.80
2022-12-08T16:17:33.654Z,38.90
2022-12-08T16:20:01.086Z,35.10
2022-12-08T16:25:22.108Z,54.10
2022-12-08T16:28:05.334Z,61.70
2022-12-08T16:30:39.566Z,61.90
2022-12-08T16:33:06.469Z,55.60
2022-12-08T16:35:33.251Z,41.40
2022-12-08T16:38:00.178Z,48.00
2022-12-08T16:40:26.876Z,42.00
2022-12-08T16:42:53.451Z,47.80
2022-12-08T16:45:23.348Z,30.70
2022-12-08T16:47:54.063Z,28.80
2022-12-08T16:50:24.931Z,33.70
2022-12-08T16:53:03.967Z,17.60
2022-12-08T16:55:31.793Z,32.80
2022-12-08T16:57:58.881Z,31.00
2022-12-08T17:00:27.940Z,38.00
2022-12-08T17:02:55.226Z,41.90
2022-12-08T17:05:23.927Z,56.90
2022-12-08T17:07:52.107Z,45.90
2022-12-08T17:10:22.556Z,48.40
2022-12-08T17:12:52.939Z,41.90
2022-12-08T17:15:23.756Z,42.00
2022-12-08T17:17:52.009Z,44.20
2022-12-08T17:20:24.106Z,21.50
2022-12-08T17:22:54.830Z,51.70
2022-12-08T17:25:21.595Z,37.60
2022-12-08T17:27:48.353Z,40.00
2022-12-08T17:30:17.085Z,52.00
2022-12-08T17:32:44.290Z,46.10
2022-12-08T17:35:12.721Z,63.50
2022-12-08T17:37:39.897Z,69.10
2022-12-08T17:40:07.365Z,63.70
2022-12-08T17:42:34.453Z,48.10
2022-12-08T17:45:01.156Z,26.90
2022-12-08T17:47:27.981Z,48.30
2022-12-08T17:49:55.379Z,45.20
2022-12-08T17:52:21.953Z,30.00
2022-12-08T17:54:48.743Z,35.00
2022-12-08T17:57:15.427Z,29.90
2022-12-08T17:59:42.158Z,40.60
2022-12-08T18:02:11.172Z,63.20
2022-12-08T18:04:37.979Z,23.00
2022-12-08T18:07:05.276Z,42.80
2022-12-08T18:09:33.056Z,35.80
2022-12-08T18:11:59.923Z,47.40
2022-12-08T18:14:27.256Z,41.30
2022-12-08T18:16:53.988Z,41.30
2022-12-08T18:19:20.771Z,60.60
2022-12-08T18:21:47.510Z,54.60
2022-12-08T18:24:21.557Z,53.20
2022-12-08T18:26:51.337Z,52.60
2022-12-08T18:29:19.035Z,40.10
2022-12-08T18:31:45.832Z,43.00
2022-12-08T18:34:12.674Z,65.80
2022-12-08T18:36:39.459Z,63.60
2022-12-08T18:39:10.821Z,34.10
2022-12-08T18:41:37.847Z,52.40
2022-12-08T18:44:04.510Z,78.50
2022-12-08T18:46:31.362Z,97.80
2022-12-08T18:48:58.892Z,94.20
2022-12-08T18:51:25.742Z,66.70
2022-12-08T18:53:52.718Z,93.60
2022-12-08T18:56:28.498Z,69.40
2022-12-08T18:59:01.496Z,94.30
2022-12-08T19:01:33.412Z,46.60
2022-12-08T19:04:27.502Z,46.60
2022-12-08T19:06:49.785Z,42.30
2022-12-08T19:09:17.009Z,35.20
2022-12-08T19:11:43.854Z,28.70
2022-12-08T19:14:10.937Z,29.00
2022-12-08T19:16:37.915Z,33.60
2022-12-08T19:19:05.175Z,29.20
2022-12-08T19:21:33.247Z,29.60
2022-12-08T19:24:00.972Z,28.30
2022-12-08T19:26:27.921Z,23.20
2022-12-08T19:28:55.528Z,11.60
2022-12-08T19:31:22.318Z,33.20
2022-12-08T19:33:49.250Z,14.90
2022-12-08T19:36:19.188Z,24.70
2022-12-08T19:39:04.884Z,34.30
2022-12-08T19:41:51.132Z,32.40
2022-12-08T19:44:25.877Z,23.60
2022-12-08T19:46:52.692Z,29.70
2022-12-08T19:49:19.551Z,16.40
2022-12-08T19:51:46.246Z,28.00
2022-12-08T19:54:12.868Z,35.20
2022-12-08T19:56:39.629Z,30.50
2022-12-08T19:59:07.183Z,31.30
2022-12-08T20:01:34.073Z,37.00
2022-12-08T20:04:00.973Z,37.30
2022-12-08T20:06:27.730Z,35.60
2022-12-08T20:08:54.586Z,39.50
2022-12-08T20:11:21.465Z,35.10
2022-12-08T20:13:48.192Z,33.40
2022-12-08T20:16:16.243Z,29.90
2022-12-08T20:18:43.636Z,39.30
2022-12-08T20:21:11.533Z,37.80
2022-12-08T20:23:38.216Z,46.50
2022-12-08T20:26:07.516Z,43.00
2022-12-08T20:28:35.236Z,35.80
2022-12-08T20:31:02.830Z,43.30
2022-12-08T20:33:30.204Z,38.60
2022-12-08T20:35:59.761Z,47.00
2022-12-08T20:38:27.784Z,30.10
2022-12-08T20:40:55.520Z,51.10
2022-12-08T20:43:22.295Z,25.80
2022-12-08T20:45:49.189Z,42.50
2022-12-08T20:48:15.997Z,54.70
2022-12-08T20:50:43.478Z,44.20
2022-12-08T20:53:10.455Z,26.60
2022-12-08T20:55:41.031Z,32.70
2022-12-08T20:58:08.020Z,20.30
2022-12-08T21:00:34.702Z,23.00
2022-12-08T21:03:01.599Z,43.20
2022-12-08T21:05:28.600Z,42.10
2022-12-08T21:07:55.435Z,61.20
2022-12-08T21:10:22.256Z,52.70
2022-12-08T21:12:49.221Z,55.80
2022-12-08T21:15:16.443Z,21.80
2022-12-08T21:17:43.235Z,36.40
2022-12-08T21:20:10.890Z,31.30
2022-12-08T21:22:39.565Z,24.50
2022-12-08T21:25:07.294Z,34.30
2022-12-08T21:27:34.023Z,21.10
2022-12-08T21:30:01.493Z,25.70
2022-12-08T21:32:30.595Z,23.40
2022-12-08T21:34:57.961Z,27.00
2022-12-08T21:37:24.919Z,23.50
2022-12-08T21:39:51.861Z,34.00
2022-12-08T21:42:37.404Z,35.90
2022-12-08T21:45:04.999Z,43.10
2022-12-08T21:47:32.136Z,44.20
2022-12-08T21:49:59.142Z,43.00
2022-12-08T21:52:26.005Z,38.10
2022-12-08T21:54:52.733Z,27.40
2022-12-08T21:57:19.978Z,37.00
2022-12-08T21:59:46.837Z,34.30
2022-12-08T22:02:18.317Z,21.10
2022-12-08T22:04:49.064Z,65.30
2022-12-08T22:07:16.368Z,57.90
2022-12-08T22:09:43.164Z,45.20
2022-12-08T22:12:11.809Z,43.20
2022-12-08T22:14:39.951Z,58.40
2022-12-08T22:17:07.161Z,58.00
2022-12-08T22:19:34.450Z,98.30
2022-12-08T22:22:01.911Z,137.40
2022-12-08T22:24:30.140Z,53.50
2022-12-08T22:26:56.824Z,35.90
2022-12-08T22:29:23.745Z,57.90
2022-12-08T22:31:50.394Z,36.30
2022-12-08T22:34:17.151Z,42.60
2022-12-08T22:36:43.873Z,43.40
2022-12-08T22:39:11.545Z,43.30
2022-12-08T22:41:38.918Z,44.30
2022-12-08T22:44:06.490Z,30.50
2022-12-08T22:46:33.441Z,40.30
2022-12-08T22:49:00.194Z,45.20
2022-12-08T22:51:26.840Z,26.50
2022-12-08T22:53:53.531Z,36.60
2022-12-08T22:56:20.208Z,43.60
2022-12-08T22:58:47.226Z,65.00
2022-12-08T23:01:40.357Z,43.10
2022-12-08T23:06:38.211Z,29.20
2022-12-08T23:09:06.223Z,32.40
2022-12-08T23:11:33.281Z,30.70
2022-12-08T23:13:59.898Z,30.90
2022-12-08T23:16:26.604Z,30.60
2022-12-08T23:18:53.615Z,31.90
2022-12-08T23:21:21.232Z,28.20
2022-12-08T23:23:48.281Z,30.90
2022-12-08T23:26:23.947Z,29.20
2022-12-08T23:28:50.710Z,44.40
2022-12-08T23:31:18.860Z,25.40
2022-12-08T23:33:46.258Z,27.20
2022-12-08T23:36:14.710Z,26.90
2022-12-08T23:38:42.221Z,23.90
2022-12-08T23:41:10.754Z,31.00
2022-12-08T23:43:42.071Z,39.60
2022-12-08T23:46:08.780Z,34.70
2022-12-08T23:48:35.774Z,28.10
2022-12-08T23:51:02.686Z,49.00
2022-12-08T23:53:31.108Z,39.20
2022-12-08T23:56:03.437Z,25.90
